Time;durP1;ratioP1;P1;durP2;ratioP2;P2;SDS_P1;SDS_P2;PMS_P1;PMS_P2;Temp;Humidity;BMP_temperature;BMP_pressure;BME280_temperature;BME280_humidity;BME280_pressure;Samples;Min_cycle;Max_cycle;Signal;HPM_P1;HPM_P2
2022/07/03 00:00:52;;;;;;;10.60;9.00;;;;;;;17.06;98.94;97744.95;109836;1249;67898;-69
2022/07/03 00:03:22;;;;;;;12.20;9.20;;;;;;;17.01;98.51;97739.60;109892;1247;68668;-68
2022/07/03 00:05:52;;;;;;;13.10;10.50;;;;;;;16.96;99.09;97737.00;109965;1247;60494;-69
2022/07/03 00:08:22;;;;;;;15.30;11.10;;;;;;;16.92;99.11;97742.02;109944;1250;60498;-69
2022/07/03 00:10:52;;;;;;;12.70;9.40;;;;;;;16.89;99.25;97739.30;110168;1248;71402;-68
2022/07/03 00:13:21;;;;;;;10.80;8.30;;;;;;;16.86;98.33;97737.80;109924;1247;67928;-70
2022/07/03 00:15:51;;;;;;;10.70;9.20;;;;;;;16.84;98.08;97737.15;109838;1247;69502;-69
2022/07/03 00:18:20;;;;;;;12.40;9.70;;;;;;;16.82;98.82;97737.70;110160;1247;60529;-68
2022/07/03 00:21:00;;;;;;;9.70;8.00;;;;;;;16.78;98.71;97736.30;110211;1248;60949;-67
2022/07/03 00:23:47;;;;;;;12.10;8.60;;;;;;;16.74;98.84;97739.10;109993;1247;70539;-69
2022/07/03 00:26:20;;;;;;;14.60;11.30;;;;;;;16.71;98.53;97734.97;110115;1247;68357;-68
2022/07/03 00:28:50;;;;;;;12.50;10.30;;;;;;;16.68;98.65;97732.73;109824;1247;69383;-69
2022/07/03 00:31:22;;;;;;;11.50;8.90;;;;;;;16.68;99.73;97731.92;110170;1247;60548;-65
2022/07/03 00:33:59;;;;;;;12.80;9.10;;;;;;;16.67;98.62;97730.36;110205;1248;60429;-70
2022/07/03 00:36:37;;;;;;;12.90;10.00;;;;;;;16.67;99.05;97724.22;110164;1247;71548;-70
2022/07/03 00:39:07;;;;;;;14.00;11.10;;;;;;;16.66;99.56;97721.64;109782;1250;68743;-70
2022/07/03 00:41:37;;;;;;;14.40;10.00;;;;;;;16.66;99.75;97718.41;109972;1250;69427;-71
2022/07/03 00:44:07;;;;;;;14.10;10.20;;;;;;;16.66;99.89;97716.55;109852;1250;60525;-72
2022/07/03 00:46:39;;;;;;;11.50;8.80;;;;;;;16.67;100.00;97717.74;110163;1248;60860;-73
2022/07/03 00:49:10;;;;;;;9.80;8.20;;;;;;;16.67;100.00;97719.33;110229;1249;72398;-73
2022/07/03 00:51:43;;;;;;;11.80;9.00;;;;;;;16.68;99.84;97721.89;110209;1248;68490;-71
2022/07/03 00:54:19;;;;;;;10.00;7.90;;;;;;;16.67;99.91;97719.83;110173;1247;68661;-68
2022/07/03 00:56:54;;;;;;;9.70;8.70;;;;;;;16.65;98.61;97717.73;110188;1247;60521;-68
2022/07/03 00:59:24;;;;;;;10.90;8.20;;;;;;;16.64;99.25;97717.14;110207;1247;60624;-71
2022/07/03 01:02:04;;;;;;;10.30;8.30;;;;;;;16.63;99.16;97714.92;110203;1248;72337;-70
2022/07/03 01:05:01;;;;;;;11.30;9.00;;;;;;;16.62;99.32;97714.12;110177;1247;68413;-67
2022/07/03 01:07:48;;;;;;;10.30;8.60;;;;;;;16.61;98.24;97712.33;109937;1249;67639;-70
2022/07/03 01:10:42;;;;;;;12.40;8.70;;;;;;;16.57;98.18;97716.16;110203;1247;60466;-70
2022/07/03 01:13:31;;;;;;;8.80;7.20;;;;;;;16.52;97.43;97717.89;110177;1247;60901;-71
2022/07/03 01:16:53;;;;;;;9.70;6.80;;;;;;;16.48;97.12;97723.70;109908;1250;71833;-68
2022/07/03 01:19:42;;;;;;;14.70;9.40;;;;;;;16.39;97.87;97726.16;109697;1255;67862;-70
2022/07/03 01:22:35;;;;;;;9.90;8.30;;;;;;;16.31;98.22;97727.22;109491;1254;69430;-73
2022/07/03 01:25:13;;;;;;;12.40;9.20;;;;;;;16.23;96.64;97726.30;109736;1250;60576;-66
2022/07/03 01:28:08;;;;;;;13.20;8.20;;;;;;;16.18;97.91;97724.14;110061;1247;60492;-68
2022/07/03 01:30:52;;;;;;;11.80;9.50;;;;;;;16.16;97.45;97725.25;110135;1247;72196;-68
2022/07/03 01:33:25;;;;;;;13.10;8.30;;;;;;;16.13;96.84;97727.75;110209;1247;67682;-71
2022/07/03 01:36:05;;;;;;;13.40;9.10;;;;;;;16.12;97.05;97724.69;109911;1250;68542;-69
2022/07/03 01:38:40;;;;;;;13.40;10.80;;;;;;;16.14;99.33;97725.02;110016;1247;60556;-67
2022/07/03 01:41:12;;;;;;;14.10;9.80;;;;;;;16.14;100.00;97720.31;110278;1247;60543;-69
2022/07/03 01:43:55;;;;;;;16.10;10.40;;;;;;;16.14;100.00;97716.55;110158;1247;71556;-71
2022/07/03 01:46:30;;;;;;;15.10;11.30;;;;;;;16.16;100.00;97707.51;110189;1247;68583;-69
2022/07/03 01:49:06;;;;;;;10.00;8.30;;;;;;;16.15;100.00;97709.65;110042;1247;68848;-71
2022/07/03 01:51:39;;;;;;;11.80;9.20;;;;;;;16.14;100.00;97710.10;110168;1247;60505;-72
2022/07/03 01:54:11;;;;;;;11.90;9.30;;;;;;;16.12;100.00;97709.02;110338;1247;60497;-69
2022/07/03 01:56:44;;;;;;;10.60;9.40;;;;;;;16.08;100.00;97714.31;110185;1250;72348;-74
2022/07/03 01:59:15;;;;;;;12.50;8.70;;;;;;;16.01;99.97;97715.61;110023;1249;68590;-70
2022/07/03 02:02:04;;;;;;;9.20;7.60;;;;;;;15.96;99.34;97711.59;109851;1248;69458;-66
2022/07/03 02:04:44;;;;;;;;;;;;;;;15.90;99.91;97715.80;110175;1247;60580;-67
2022/07/03 02:07:47;;;;;;;13.50;9.50;;;;;;;15.84;99.91;97717.43;110230;1247;60494;-65
2022/07/03 02:10:28;;;;;;;13.30;9.20;;;;;;;15.82;100.00;97718.31;110186;1247;72161;-66
2022/07/03 02:13:03;;;;;;;12.60;9.00;;;;;;;15.82;100.00;97720.89;110223;1247;68438;-68
2022/07/03 02:15:35;;;;;;;12.60;8.90;;;;;;;15.82;100.00;97721.63;110168;1247;69324;-70
2022/07/03 02:18:16;;;;;;;10.70;8.00;;;;;;;15.82;99.78;97719.85;110163;1249;60484;-67
2022/07/03 02:20:54;;;;;;;14.00;11.10;;;;;;;15.83;99.95;97718.57;110208;1247;60498;-69
2022/07/03 02:23:30;;;;;;;13.50;9.60;;;;;;;15.81;100.00;97721.34;110156;1250;71671;-69
2022/07/03 02:26:05;;;;;;;13.30;9.80;;;;;;;15.79;99.57;97721.83;110196;1248;68545;-69
2022/07/03 02:28:59;;;;;;;12.20;9.60;;;;;;;15.78;99.36;97721.55;110156;1249;69392;-71
2022/07/03 02:31:34;;;;;;;12.30;9.40;;;;;;;15.71;99.81;97716.94;110044;1250;60558;-69
2022/07/03 02:34:06;;;;;;;12.90;9.20;;;;;;;15.66;99.35;97714.05;110153;1247;60548;-70
2022/07/03 02:36:40;;;;;;;11.20;8.30;;;;;;;15.64;99.73;97716.53;110143;1250;72118;-70
2022/07/03 02:39:18;;;;;;;14.00;9.90;;;;;;;15.63;100.00;97717.11;109823;1250;67614;-71
2022/07/03 02:41:58;;;;;;;12.70;8.80;;;;;;;15.64;100.00;97718.50;110161;1247;69379;-71
2022/07/03 02:44:45;;;;;;;12.80;9.80;;;;;;;15.65;100.00;97712.23;110110;1249;60521;-69
2022/07/03 02:47:30;;;;;;;12.80;9.40;;;;;;;15.64;100.00;97710.88;109942;1248;60526;-71
2022/07/03 02:50:05;;;;;;;11.30;8.60;;;;;;;15.67;100.00;97711.30;110196;1248;71593;-71
2022/07/03 02:52:38;;;;;;;13.90;9.30;;;;;;;15.68;100.00;97710.87;110156;1248;68562;-70
2022/07/03 02:55:31;;;;;;;11.70;8.20;;;;;;;15.73;100.00;97718.02;109980;1250;69447;-69
2022/07/03 02:58:24;;;;;;;14.70;9.70;;;;;;;15.75;100.00;97713.80;110161;1247;60553;-71
2022/07/03 03:00:56;;;;;;;11.00;9.00;;;;;;;15.77;100.00;97715.51;110194;1250;60519;-66
2022/07/03 03:03:32;;;;;;;13.40;9.20;;;;;;;15.79;100.00;97719.39;110153;1248;71570;-67
2022/07/03 03:06:19;;;;;;;11.50;9.20;;;;;;;15.83;100.00;97720.84;110174;1250;68278;-68
2022/07/03 03:08:52;;;;;;;12.80;9.90;;;;;;;15.85;100.00;97723.59;110200;1247;69377;-70
2022/07/03 03:11:41;;;;;;;13.00;10.60;;;;;;;15.87;100.00;97721.90;110171;1248;60521;-66
2022/07/03 03:14:15;;;;;;;10.00;7.80;;;;;;;15.89;100.00;97723.28;110167;1247;60502;-71
2022/07/03 03:16:53;;;;;;;12.70;8.30;;;;;;;15.91;99.27;97722.23;110158;1247;71860;-69
2022/07/03 03:19:24;;;;;;;10.90;8.40;;;;;;;15.92;97.88;97722.27;109998;1250;68584;-67
2022/07/03 03:22:19;;;;;;;11.70;8.60;;;;;;;15.95;98.52;97725.21;110126;1248;67747;-71
2022/07/03 03:24:48;;;;;;;10.90;7.60;;;;;;;15.99;99.23;97728.73;110133;1247;60534;-67
2022/07/03 03:27:19;;;;;;;9.70;8.40;;;;;;;16.01;98.51;97727.96;110168;1247;60491;-69
2022/07/03 03:29:49;;;;;;;9.30;7.10;;;;;;;16.05;97.63;97732.15;110216;1247;71748;-66
2022/07/03 03:32:21;;;;;;;11.00;8.90;;;;;;;16.10;96.24;97735.98;109873;1251;68451;-73
2022/07/03 03:34:51;;;;;;;10.20;8.10;;;;;;;16.14;97.38;97735.42;109914;1250;68473;-69
2022/07/03 03:37:20;;;;;;;11.60;8.70;;;;;;;16.18;96.19;97735.08;109905;1250;60996;-71
2022/07/03 03:39:51;;;;;;;9.30;7.60;;;;;;;16.21;95.35;97733.33;109894;1250;60519;-68
2022/07/03 03:42:21;;;;;;;9.20;7.40;;;;;;;16.24;94.87;97734.83;109940;1250;71626;-71
2022/07/03 03:44:52;;;;;;;9.50;7.10;;;;;;;16.26;94.71;97734.63;109996;1250;68530;-71
2022/07/03 03:47:22;;;;;;;8.00;6.10;;;;;;;16.29;94.49;97733.19;110193;1247;69223;-73
2022/07/03 03:49:51;;;;;;;;;;;;;;;16.32;94.14;97731.23;109832;1248;60563;-71
2022/07/03 03:52:22;;;;;;;;;;;;;;;16.34;94.88;97734.14;110042;1250;60495;-72
2022/07/03 03:54:52;;;;;;;12.10;10.10;;;;;;;16.40;97.38;97736.08;110225;1247;72186;-73
2022/07/03 03:57:24;;;;;;;16.10;10.20;;;;;;;16.45;97.60;97736.27;110055;1250;68803;-73
2022/07/03 03:59:56;;;;;;;10.70;8.70;;;;;;;16.51;98.58;97734.50;110258;1248;68656;-70
2022/07/03 04:02:26;;;;;;;13.60;10.40;;;;;;;16.59;96.65;97732.88;110212;1247;60908;-72
2022/07/03 04:04:57;;;;;;;13.40;10.70;;;;;;;16.68;96.48;97732.92;110195;1246;60494;-70
2022/07/03 04:07:27;;;;;;;14.40;11.50;;;;;;;16.78;98.02;97736.77;110178;1250;71381;-65
2022/07/03 04:09:56;;;;;;;12.50;10.30;;;;;;;16.88;98.09;97733.80;110118;1250;67776;-67
2022/07/03 04:12:25;;;;;;;12.50;9.80;;;;;;;16.95;97.05;97735.55;110110;1250;68963;-71
2022/07/03 04:14:58;;;;;;;11.20;10.00;;;;;;;17.06;96.85;97736.69;110132;1248;60560;-66
2022/07/03 04:17:27;;;;;;;9.90;7.80;;;;;;;17.15;96.44;97737.15;110168;1250;60456;-64
2022/07/03 04:19:56;;;;;;;9.20;6.90;;;;;;;17.25;95.71;97741.01;110169;1248;72227;-67
2022/07/03 04:22:25;;;;;;;8.40;6.90;;;;;;;17.36;94.78;97741.94;109991;1250;68611;-70
2022/07/03 04:24:57;;;;;;;11.00;7.00;;;;;;;17.47;94.15;97745.61;109982;1249;68641;-72
2022/07/03 04:27:27;;;;;;;9.60;8.40;;;;;;;17.57;94.17;97746.92;109812;1252;60626;-70
2022/07/03 04:30:17;;;;;;;9.60;8.00;;;;;;;17.68;93.20;97744.34;109973;1250;60420;-68
2022/07/03 04:32:47;;;;;;;8.10;6.90;;;;;;;17.75;92.45;97744.82;110132;1247;71659;-66
2022/07/03 04:35:17;;;;;;;10.70;8.20;;;;;;;17.85;92.06;97742.88;110156;1247;68026;-73
2022/07/03 04:37:46;;;;;;;9.00;6.20;;;;;;;17.93;91.23;97739.42;109874;1250;69304;-68
2022/07/03 04:40:15;;;;;;;7.50;6.60;;;;;;;17.99;91.01;97739.85;110113;1248;60569;-70
2022/07/03 04:42:44;;;;;;;8.40;6.90;;;;;;;18.09;90.84;97737.86;110148;1248;60593;-72
2022/07/03 04:45:13;;;;;;;7.90;6.40;;;;;;;18.19;90.20;97740.04;110145;1250;72185;-71
2022/07/03 04:47:43;;;;;;;8.20;6.80;;;;;;;18.26;90.03;97731.91;110054;1250;67667;-70
2022/07/03 04:50:12;;;;;;;10.40;8.00;;;;;;;18.37;89.54;97729.58;110153;1250;68784;-71
2022/07/03 04:52:41;;;;;;;11.10;7.10;;;;;;;18.49;89.51;97728.63;110140;1248;60468;-72
2022/07/03 04:55:10;;;;;;;9.60;8.40;;;;;;;18.61;89.17;97726.27;110263;1247;60561;-66
2022/07/03 04:57:39;;;;;;;10.50;8.40;;;;;;;18.76;88.57;97730.17;109953;1250;71673;-71
2022/07/03 05:00:08;;;;;;;9.70;8.60;;;;;;;18.90;88.76;97729.10;110105;1247;68438;-65
2022/07/03 05:02:37;;;;;;;;;;;;;;;19.06;88.16;97727.45;109920;1250;69300;-72
2022/07/03 05:05:07;;;;;;;10.20;8.20;;;;;;;19.20;87.67;97733.38;110156;1249;60494;-72
2022/07/03 05:07:36;;;;;;;;;;;;;;;19.34;86.77;97734.40;110151;1248;60478;-68
2022/07/03 05:10:07;;;;;;;10.00;8.00;;;;;;;19.57;87.10;97735.81;110118;1249;72369;-72
2022/07/03 05:12:36;;;;;;;11.30;7.90;;;;;;;19.90;87.06;97736.76;109943;1251;68426;-68
2022/07/03 05:15:09;;;;;;;7.60;6.80;;;;;;;20.29;87.43;97738.58;110127;1249;70691;-67
2022/07/03 05:17:39;;;;;;;9.30;7.70;;;;;;;20.66;85.25;97732.14;110152;1247;60471;-67
2022/07/03 05:22:57;;;;;;;9.70;7.20;;;;;;;21.52;81.48;97735.91;110205;1248;72363;-69
2022/07/03 05:25:39;;;;;;;7.90;7.10;;;;;;;21.76;78.37;97735.63;110217;1248;68659;-72
2022/07/03 05:28:11;;;;;;;9.50;8.40;;;;;;;22.01;76.66;97738.13;110186;1250;69444;-72
2022/07/03 05:30:43;;;;;;;7.70;7.00;;;;;;;22.15;76.00;97739.80;109992;1250;60505;-69
2022/07/03 05:33:12;;;;;;;8.80;7.90;;;;;;;22.21;75.55;97738.36;110192;1249;60632;-68
2022/07/03 05:35:41;;;;;;;8.80;6.90;;;;;;;22.31;75.33;97738.80;110131;1250;72349;-66
2022/07/03 05:38:10;;;;;;;8.70;7.60;;;;;;;22.39;74.77;97736.84;109955;1250;67808;-70
2022/07/03 05:40:39;;;;;;;8.80;7.60;;;;;;;22.41;74.08;97736.89;109942;1250;68902;-70
2022/07/03 05:43:08;;;;;;;9.80;7.20;;;;;;;22.31;73.76;97734.50;110122;1248;60480;-73
2022/07/03 05:45:38;;;;;;;9.70;7.20;;;;;;;22.18;74.25;97730.70;110179;1250;60493;-74
2022/07/03 05:48:07;;;;;;;9.60;8.00;;;;;;;22.16;73.89;97733.40;110151;1247;71741;-72
2022/07/03 05:50:36;;;;;;;8.80;7.00;;;;;;;22.18;74.25;97731.40;110221;1248;68608;-74
2022/07/03 05:53:05;;;;;;;7.90;7.10;;;;;;;22.21;74.12;97727.81;110264;1250;68580;-72
2022/07/03 05:55:34;;;;;;;7.40;5.90;;;;;;;22.28;73.91;97728.96;110124;1248;60436;-75
2022/07/03 05:58:03;;;;;;;10.50;8.40;;;;;;;22.33;74.21;97732.48;110142;1248;60538;-69
2022/07/03 06:00:33;;;;;;;7.30;6.40;;;;;;;22.36;74.18;97731.13;110226;1247;73032;-70
2022/07/03 06:03:02;;;;;;;7.50;6.70;;;;;;;22.48;73.52;97729.77;110240;1249;68591;-75
2022/07/03 06:05:33;;;;;;;8.50;7.50;;;;;;;22.60;73.04;97726.86;109965;1250;68994;-74
2022/07/03 06:08:11;;;;;;;8.70;7.90;;;;;;;22.69;72.72;97727.23;110117;1250;60500;-73
2022/07/03 06:10:51;;;;;;;7.50;6.70;;;;;;;22.84;72.61;97725.79;110277;1248;60554;-73
2022/07/03 06:13:21;;;;;;;9.30;6.50;;;;;;;22.98;71.80;97726.82;109940;1248;72024;-68
2022/07/03 06:15:50;;;;;;;8.80;7.50;;;;;;;23.06;70.74;97721.40;110169;1249;68477;-72
2022/07/03 06:18:19;;;;;;;9.00;7.40;;;;;;;23.09;70.23;97720.49;109927;1251;69446;-74
2022/07/03 06:20:48;;;;;;;8.30;7.10;;;;;;;23.17;69.59;97719.37;110238;1249;60550;-74
2022/07/03 06:23:18;;;;;;;7.70;6.90;;;;;;;23.40;70.77;97720.91;110199;1248;60533;-68
2022/07/03 06:26:07;;;;;;;7.30;6.60;;;;;;;23.74;70.68;97724.77;110176;1247;72421;-74
2022/07/03 06:28:38;;;;;;;8.00;7.20;;;;;;;24.09;68.47;97725.95;109744;1250;68600;-75
2022/07/03 06:31:07;;;;;;;8.60;7.50;;;;;;;24.34;65.85;97721.86;110164;1248;68527;-74
2022/07/03 06:33:36;;;;;;;8.90;6.90;;;;;;;24.58;65.58;97724.25;109844;1251;60516;-72
2022/07/03 06:36:06;;;;;;;8.30;7.10;;;;;;;24.88;64.94;97717.39;110200;1250;60503;-75
2022/07/03 06:38:35;;;;;;;7.90;7.00;;;;;;;25.26;62.50;97711.61;109886;1250;72322;-69
2022/07/03 06:41:04;;;;;;;9.00;7.60;;;;;;;25.29;60.22;97711.08;109904;1251;68618;-71
2022/07/03 06:43:33;;;;;;;7.60;6.90;;;;;;;25.36;60.64;97713.44;110139;1251;69226;-73
2022/07/03 06:46:03;;;;;;;9.30;8.20;;;;;;;25.81;60.15;97713.45;109842;1251;60528;-74
2022/07/03 06:48:32;;;;;;;9.00;6.60;;;;;;;25.77;58.94;97716.14;110170;1250;60509;-74
2022/07/03 06:51:04;;;;;;;8.90;7.90;;;;;;;26.04;57.59;97710.27;109932;1251;72210;-75
2022/07/03 06:53:33;;;;;;;;;;;;;;;26.33;57.65;97710.85;110164;1247;67898;-73
2022/07/03 06:56:03;;;;;;;8.00;7.10;;;;;;;26.14;56.83;97709.63;110139;1248;68704;-69
2022/07/03 06:58:31;;;;;;;8.70;7.40;;;;;;;26.40;56.87;97712.48;110132;1250;60482;-70
2022/07/03 07:01:01;;;;;;;8.90;7.20;;;;;;;26.44;56.29;97711.08;110203;1247;60515;-69
2022/07/03 07:03:30;;;;;;;7.90;7.10;;;;;;;26.56;56.74;97710.20;110130;1250;71687;-71
2022/07/03 07:05:59;;;;;;;;;;;;;;;26.84;55.78;97709.73;110160;1249;67654;-70
2022/07/03 07:08:28;;;;;;;10.70;7.40;;;;;;;26.84;55.03;97708.46;110117;1248;68682;-71
2022/07/03 07:10:57;;;;;;;12.60;8.40;;;;;;;26.94;54.83;97706.64;109961;1250;60771;-70
2022/07/03 07:13:26;;;;;;;;;;;;;;;26.74;55.22;97707.71;110187;1247;60535;-68
2022/07/03 07:15:55;;;;;;;7.30;6.70;;;;;;;26.69;55.58;97709.54;109884;1251;71423;-72
2022/07/03 07:18:24;;;;;;;7.50;6.80;;;;;;;27.09;54.91;97705.84;110122;1248;68713;-70
2022/07/03 07:20:52;;;;;;;;;;;;;;;27.28;54.16;97706.95;110158;1247;68616;-68
2022/07/03 07:23:21;;;;;;;7.60;6.70;;;;;;;27.69;53.36;97702.95;110117;1250;60547;-68
2022/07/03 07:25:50;;;;;;;;;;;;;;;28.28;52.98;97703.31;109889;1248;60534;-66
2022/07/03 07:28:19;;;;;;;8.20;7.40;;;;;;;28.77;51.47;97698.60;109601;1247;683034;-70
2022/07/03 07:30:48;;;;;;;;;;;;;;;28.88;49.78;97694.16;110122;1250;68470;-70
2022/07/03 07:33:17;;;;;;;;;;;;;;;29.00;49.91;97694.05;110113;1248;69417;-71
2022/07/03 07:35:46;;;;;;;7.20;6.40;;;;;;;29.47;50.10;97691.70;110123;1249;60493;-71
2022/07/03 07:38:14;;;;;;;8.60;7.40;;;;;;;29.30;48.55;97690.98;109970;1250;60537;-72
2022/07/03 07:40:44;;;;;;;7.70;6.90;;;;;;;29.42;48.08;97692.92;110011;1248;71591;-67
2022/07/03 07:43:13;;;;;;;7.30;6.30;;;;;;;29.60;48.48;97689.88;110179;1250;68073;-72
2022/07/03 07:45:43;;;;;;;8.10;7.30;;;;;;;29.87;47.65;97689.06;110228;1247;69641;-71
2022/07/03 07:48:18;;;;;;;6.30;5.70;;;;;;;29.90;47.20;97686.91;110171;1248;60539;-68
2022/07/03 07:50:56;;;;;;;7.50;6.80;;;;;;;30.15;45.95;97682.95;110065;1247;60506;-71
2022/07/03 07:53:25;;;;;;;;;;;;;;;30.72;45.83;97682.66;110211;1247;72186;-71
2022/07/03 07:55:58;;;;;;;8.40;6.40;;;;;;;30.87;44.48;97682.84;109965;1250;67772;-67
2022/07/03 07:58:31;;;;;;;8.20;7.00;;;;;;;30.80;44.12;97683.04;110283;1247;68862;-71
2022/07/03 08:06:43;;;;;;;8.70;7.10;;;;;;;30.69;45.08;97678.91;109986;1250;71646;-67
2022/07/03 08:09:12;;;;;;;7.20;6.50;;;;;;;30.99;44.45;97678.88;110237;1247;68720;-74
2022/07/03 08:11:42;;;;;;;6.80;6.10;;;;;;;31.31;43.02;97677.55;110234;1247;69473;-72
2022/07/03 08:14:11;;;;;;;8.00;7.00;;;;;;;31.37;42.75;97672.05;110244;1247;60490;-68
2022/07/03 08:16:42;;;;;;;7.60;6.90;;;;;;;31.53;43.21;97674.85;109756;1251;60412;-68
2022/07/03 08:19:11;;;;;;;6.90;6.20;;;;;;;31.47;42.53;97672.89;109854;1250;71608;-70
2022/07/03 08:21:41;;;;;;;8.20;6.60;;;;;;;30.98;42.65;97675.45;110259;1248;68856;-71
2022/07/03 08:24:12;;;;;;;6.80;6.20;;;;;;;31.39;42.99;97678.73;109958;1247;69514;-69
2022/07/03 08:26:42;;;;;;;6.60;5.70;;;;;;;31.97;42.57;97676.23;110217;1247;60576;-71
2022/07/03 08:29:11;;;;;;;7.30;6.50;;;;;;;32.15;41.41;97675.22;110052;1247;61051;-69
2022/07/03 08:31:41;;;;;;;7.00;6.40;;;;;;;32.05;42.04;97674.34;110204;1248;71624;-71
2022/07/03 08:34:13;;;;;;;7.90;7.10;;;;;;;32.20;41.62;97673.19;110194;1247;69316;-71
2022/07/03 08:36:43;;;;;;;8.70;6.90;;;;;;;32.08;40.84;97673.29;110165;1247;69529;-69
2022/07/03 08:39:16;;;;;;;7.00;6.40;;;;;;;31.74;40.69;97679.61;110223;1248;60443;-70
2022/07/03 08:41:54;;;;;;;7.20;6.00;;;;;;;31.48;40.88;97673.08;110059;1248;60441;-71
2022/07/03 08:44:28;;;;;;;6.90;5.80;;;;;;;31.44;40.97;97674.88;110018;1248;72220;-72
2022/07/03 08:47:02;;;;;;;7.60;6.90;;;;;;;31.54;40.85;97672.35;110032;1248;68573;-69
2022/07/03 08:49:36;;;;;;;6.30;5.70;;;;;;;31.05;40.37;97671.64;110146;1248;68595;-72
2022/07/03 08:52:11;;;;;;;5.70;5.10;;;;;;;31.75;40.03;97674.01;109833;1251;60540;-70
2022/07/03 08:54:40;;;;;;;9.80;6.80;;;;;;;32.36;40.23;97669.20;110221;1247;60485;-71
2022/07/03 08:57:11;;;;;;;7.30;6.30;;;;;;;32.82;39.16;97668.48;109950;1248;72516;-70
2022/07/03 08:59:45;;;;;;;7.00;6.10;;;;;;;32.97;38.75;97659.20;110102;1248;68995;-69
2022/07/03 09:02:21;;;;;;;5.60;5.10;;;;;;;33.15;38.64;97664.02;110227;1247;69449;-69
2022/07/03 09:04:57;;;;;;;5.60;5.10;;;;;;;33.24;36.43;97661.80;110034;1247;60465;-68
2022/07/03 09:07:27;;;;;;;5.70;4.90;;;;;;;33.38;35.79;97659.39;110000;1247;60507;-71
2022/07/03 09:09:56;;;;;;;6.50;5.10;;;;;;;33.70;36.22;97655.64;110157;1248;71591;-68
2022/07/03 09:12:26;;;;;;;6.80;5.60;;;;;;;34.02;34.99;97659.49;110170;1248;68543;-70
2022/07/03 09:14:56;;;;;;;4.90;4.50;;;;;;;33.71;33.61;97655.83;110253;1246;69522;-71
2022/07/03 09:17:31;;;;;;;6.40;4.90;;;;;;;33.47;34.09;97652.89;110215;1248;60592;-69
2022/07/03 09:20:03;;;;;;;6.40;5.30;;;;;;;33.53;34.39;97653.58;109998;1248;60517;-69
2022/07/03 09:22:35;;;;;;;5.20;4.70;;;;;;;33.59;34.24;97648.75;110225;1247;71754;-67
2022/07/03 09:25:11;;;;;;;6.00;5.40;;;;;;;33.85;34.55;97647.27;109953;1248;68634;-68
2022/07/03 09:27:52;;;;;;;6.20;5.70;;;;;;;33.98;34.60;97650.17;110140;1249;69481;-69
2022/07/03 09:30:21;;;;;;;6.30;5.30;;;;;;;34.15;33.48;97646.27;110261;1247;60499;-67
2022/07/03 09:32:50;;;;;;;5.60;5.00;;;;;;;34.16;33.21;97644.17;110240;1247;60491;-68
2022/07/03 09:35:23;;;;;;;5.40;4.90;;;;;;;34.28;33.06;97644.48;110023;1248;72438;-72
2022/07/03 09:37:52;;;;;;;7.20;4.40;;;;;;;34.47;32.88;97641.62;110244;1248;67849;-72
2022/07/03 09:40:45;;;;;;;5.30;4.80;;;;;;;34.69;32.15;97639.84;110220;1248;68736;-71
2022/07/03 09:43:14;;;;;;;4.50;4.10;;;;;;;34.74;31.72;97637.27;110066;1248;60981;-71
2022/07/03 09:45:58;;;;;;;6.00;5.50;;;;;;;34.93;32.19;97634.56;110189;1248;60555;-67
2022/07/03 09:48:41;;;;;;;5.70;5.20;;;;;;;34.52;32.27;97632.54;110212;1247;72014;-70
2022/07/03 09:51:26;;;;;;;5.20;4.70;;;;;;;34.39;32.29;97631.39;110242;1247;67955;-70
2022/07/03 09:53:57;;;;;;;5.10;4.60;;;;;;;34.38;32.94;97627.37;110137;1249;68701;-71
2022/07/03 09:56:37;;;;;;;5.20;4.70;;;;;;;34.55;32.91;97627.73;109957;1248;60562;-68
2022/07/03 09:59:15;;;;;;;5.80;4.70;;;;;;;34.73;33.43;97618.85;110050;1247;60579;-67
2022/07/03 10:01:45;;;;;;;6.00;5.50;;;;;;;35.08;32.35;97615.16;110036;1248;72469;-69
2022/07/03 10:04:22;;;;;;;6.50;5.90;;;;;;;34.96;32.15;97613.41;110175;1247;67829;-70
2022/07/03 10:06:56;;;;;;;6.10;5.50;;;;;;;34.86;32.69;97610.89;110024;1251;69253;-70
2022/07/03 10:09:30;;;;;;;5.50;5.00;;;;;;;34.62;33.04;97605.59;110194;1250;60553;-70
2022/07/03 10:12:01;;;;;;;7.60;6.40;;;;;;;34.46;33.11;97604.54;110241;1247;60533;-70
2022/07/03 10:14:32;;;;;;;6.50;5.80;;;;;;;34.11;33.71;97598.98;109947;1250;71602;-69
2022/07/03 10:17:01;;;;;;;6.30;5.60;;;;;;;34.11;35.08;97595.45;110209;1247;67823;-70
2022/07/03 10:19:37;;;;;;;7.20;6.60;;;;;;;34.30;34.55;97591.66;110172;1247;69749;-71
2022/07/03 10:22:21;;;;;;;7.10;6.20;;;;;;;34.38;33.66;97589.55;110206;1247;60570;-70
2022/07/03 10:24:52;;;;;;;7.30;6.00;;;;;;;33.91;33.97;97585.34;110204;1247;60554;-68
2022/07/03 10:27:22;;;;;;;7.20;6.40;;;;;;;33.92;34.67;97579.82;110030;1247;72305;-68
2022/07/03 10:29:53;;;;;;;8.20;6.50;;;;;;;33.47;35.09;97576.27;110198;1247;68196;-67
2022/07/03 10:32:23;;;;;;;8.20;7.40;;;;;;;33.01;35.98;97569.84;110238;1247;69675;-68
2022/07/03 10:34:52;;;;;;;6.10;5.60;;;;;;;32.69;36.22;97565.66;109957;1248;60586;-70
2022/07/03 10:37:30;;;;;;;6.80;5.70;;;;;;;32.92;36.29;97562.46;110209;1247;60508;-67
2022/07/03 10:46:15;;;;;;;7.30;6.70;;;;;;;32.92;37.18;97543.26;110180;1247;69128;-71
2022/07/03 10:49:12;;;;;;;6.40;5.80;;;;;;;33.18;36.16;97540.27;109980;1247;60504;-69
2022/07/03 10:51:46;;;;;;;7.10;6.40;;;;;;;33.27;36.34;97534.80;109990;1251;60459;-69
2022/07/03 10:54:36;;;;;;;7.10;6.40;;;;;;;33.38;36.41;97532.11;109985;1251;71405;-70
2022/07/03 10:57:07;;;;;;;5.70;5.10;;;;;;;33.60;36.25;97532.94;110162;1250;67311;-69
2022/07/03 10:59:45;;;;;;;6.50;5.90;;;;;;;33.88;35.61;97534.52;110271;1249;70130;-68
2022/07/03 11:02:34;;;;;;;6.90;6.30;;;;;;;34.06;34.74;97529.86;110300;1248;61040;-67
2022/07/03 11:05:20;;;;;;;7.30;6.50;;;;;;;34.24;34.97;97533.73;110182;1250;60489;-69
2022/07/03 11:07:53;;;;;;;8.10;7.20;;;;;;;34.31;34.29;97528.45;110113;1250;71595;-70
2022/07/03 11:10:26;;;;;;;7.00;6.20;;;;;;;33.92;34.29;97526.79;110249;1249;67618;-68
2022/07/03 11:12:57;;;;;;;;;;;;;;;33.43;33.61;97524.36;110189;1249;69531;-70
2022/07/03 11:15:33;;;;;;;6.90;6.20;;;;;;;33.48;34.24;97521.34;110126;1249;60485;-67
2022/07/03 11:18:17;;;;;;;5.60;5.10;;;;;;;33.91;34.55;97520.16;110001;1247;60516;-69
2022/07/03 11:20:49;;;;;;;6.70;5.70;;;;;;;33.86;32.16;97520.06;110168;1250;71677;-68
2022/07/03 11:23:27;;;;;;;5.10;4.60;;;;;;;33.86;32.34;97518.33;110220;1250;68846;-68
2022/07/03 11:26:02;;;;;;;7.40;6.70;;;;;;;34.22;31.86;97516.19;110131;1250;67702;-67
2022/07/03 11:28:33;;;;;;;6.20;5.60;;;;;;;33.95;31.60;97519.22;110004;1250;60579;-69
2022/07/03 11:31:10;;;;;;;5.00;4.50;;;;;;;33.94;31.99;97513.91;110110;1249;60446;-69
2022/07/03 11:33:43;;;;;;;7.00;5.40;;;;;;;34.13;31.25;97505.59;110014;1251;72390;-67
2022/07/03 11:36:22;;;;;;;5.00;4.50;;;;;;;34.54;31.85;97505.27;110067;1250;68529;-68
2022/07/03 11:39:00;;;;;;;6.40;5.20;;;;;;;34.87;31.83;97498.39;110088;1250;68504;-69
2022/07/03 11:41:41;;;;;;;5.90;5.10;;;;;;;35.15;31.91;97497.05;109939;1250;60412;-67
2022/07/03 11:44:17;;;;;;;5.60;5.10;;;;;;;35.03;30.53;97498.45;110170;1250;60539;-68
2022/07/03 11:46:51;;;;;;;5.50;4.90;;;;;;;35.23;29.64;97490.16;110114;1249;71428;-68
2022/07/03 11:49:22;;;;;;;6.40;5.30;;;;;;;35.09;28.99;97488.80;110032;1250;68498;-67
2022/07/03 11:52:02;;;;;;;5.30;4.80;;;;;;;35.19;29.36;97483.85;110171;1247;68644;-70
2022/07/03 11:54:53;;;;;;;5.80;5.30;;;;;;;35.49;29.39;97486.27;110004;1248;60586;-68
2022/07/03 11:57:30;;;;;;;6.50;5.70;;;;;;;35.64;29.84;97480.41;110011;1247;60484;-70
2022/07/03 12:00:06;;;;;;;5.50;4.90;;;;;;;35.86;29.17;97476.23;110222;1247;71876;-69
2022/07/03 12:02:50;;;;;;;7.60;5.30;;;;;;;35.98;28.41;97462.64;110183;1248;67959;-70
2022/07/03 12:05:19;;;;;;;7.00;5.80;;;;;;;35.89;28.31;97459.58;109989;1249;68172;-70
2022/07/03 12:08:06;;;;;;;6.10;5.50;;;;;;;35.72;28.39;97459.05;110150;1248;60824;-71
2022/07/03 12:10:41;;;;;;;6.80;5.30;;;;;;;35.50;28.27;97456.53;110043;1247;60538;-70